createdAt,value
2023-04-12T02:49:40.062Z,20.08
2023-04-12T02:52:07.942Z,21.50
2023-04-12T02:54:42.326Z,20.35
2023-04-12T02:57:16.208Z,19.27
2023-04-12T02:59:46.638Z,20.55
2023-04-12T03:02:20.032Z,19.65
2023-04-12T03:04:50.775Z,19.77
2023-04-12T03:07:22.113Z,20.17
2023-04-12T03:09:51.722Z,19.33
2023-04-12T03:12:21.081Z,20.63
2023-04-12T03:15:09.287Z,20.05
2023-04-12T03:17:36.429Z,20.98
2023-04-12T03:20:07.964Z,19.77
2023-04-12T03:22:35.012Z,19.40
2023-04-12T03:25:05.850Z,20.00
2023-04-12T03:27:33.314Z,20.90
2023-04-12T03:30:00.905Z,19.92
2023-04-12T03:32:33.817Z,21.02
2023-04-12T03:35:01.197Z,20.35
2023-04-12T03:37:29.356Z,20.67
2023-04-12T03:39:57.392Z,20.85
2023-04-12T03:42:33.184Z,19.42
2023-04-12T03:45:09.907Z,20.80
2023-04-12T03:47:37.964Z,21.75
2023-04-12T03:50:11.395Z,22.25
2023-04-12T03:52:42.497Z,22.33
2023-04-12T03:55:09.712Z,21.15
2023-04-12T03:57:37.841Z,21.02
2023-04-12T04:00:08.689Z,22.65
2023-04-12T04:02:54.904Z,21.75
2023-04-12T04:05:22.567Z,21.45
2023-04-12T04:07:49.921Z,21.48
2023-04-12T04:10:17.172Z,21.55
2023-04-12T04:12:45.536Z,21.77
2023-04-12T04:15:14.323Z,21.30
2023-04-12T04:27:47.154Z,21.80
2023-04-12T04:30:18.788Z,22.00
2023-04-12T04:32:48.322Z,22.97
2023-04-12T04:35:17.365Z,21.55
2023-04-12T04:38:01.541Z,21.50
2023-04-12T04:40:29.145Z,21.98
2023-04-12T04:42:57.701Z,21.90
2023-04-12T05:47:38.494Z,13.68
2023-04-12T05:50:07.087Z,13.13
2023-04-12T05:52:34.533Z,14.07
2023-04-12T05:55:01.988Z,14.55
2023-04-12T05:57:30.658Z,14.07
2023-04-12T05:59:58.468Z,13.55
2023-04-12T06:02:26.237Z,13.93
2023-04-12T06:04:55.790Z,12.60
2023-04-12T06:07:23.010Z,13.68
2023-04-12T06:09:50.154Z,13.50
2023-04-12T06:12:18.003Z,13.30
2023-04-12T06:14:45.311Z,12.77
2023-04-12T06:17:12.643Z,12.02
2023-04-12T06:19:40.688Z,12.40
2023-04-12T06:22:07.748Z,13.30
2023-04-12T06:24:34.974Z,12.88
2023-04-12T06:27:02.019Z,12.35
2023-04-12T06:29:29.092Z,13.07
2023-04-12T06:31:56.119Z,13.52
2023-04-12T06:34:23.148Z,12.25
2023-04-12T06:36:51.258Z,12.55
2023-04-12T06:39:18.216Z,12.43
2023-04-12T06:41:47.469Z,12.30
2023-04-12T06:44:19.428Z,12.10
2023-04-12T06:46:46.671Z,12.48
2023-04-12T06:49:13.823Z,13.18
2023-04-12T06:51:41.050Z,13.00
2023-04-12T06:54:08.010Z,12.50
2023-04-12T06:56:37.350Z,12.48
2023-04-12T06:59:04.298Z,11.52
2023-04-12T07:01:31.582Z,12.23
2023-04-12T07:03:58.775Z,12.27
2023-04-12T07:06:26.366Z,11.90
2023-04-12T07:08:53.712Z,11.48
2023-04-12T07:11:23.003Z,11.00
2023-04-12T07:13:51.456Z,12.18
2023-04-12T07:16:18.771Z,12.25
2023-04-12T07:18:45.922Z,10.85
2023-04-12T07:21:17.619Z,11.73
2023-04-12T07:23:46.595Z,10.93
2023-04-12T07:26:13.597Z,11.45
2023-04-12T07:28:40.755Z,10.90
2023-04-12T07:31:08.064Z,10.65
2023-04-12T07:33:36.650Z,11.02
2023-04-12T07:36:04.678Z,10.80
2023-04-12T07:38:31.816Z,10.85
2023-04-12T07:40:58.890Z,11.80
2023-04-12T07:43:26.053Z,10.80
2023-04-12T07:45:55.868Z,11.05
2023-04-12T07:48:23.141Z,10.90
2023-04-12T07:50:50.723Z,11.23
2023-04-12T07:53:20.068Z,12.15
2023-04-12T07:55:47.578Z,10.60
2023-04-12T07:58:17.141Z,11.70
2023-04-12T08:00:45.246Z,11.02
2023-04-12T08:03:13.862Z,11.10
2023-04-12T08:05:41.307Z,10.20
2023-04-12T08:08:11.823Z,10.70
2023-04-12T08:10:39.869Z,11.93
2023-04-12T08:13:07.528Z,12.02
2023-04-12T08:15:34.716Z,11.07
2023-04-12T08:18:02.541Z,10.73
2023-04-12T08:20:29.914Z,10.38
2023-04-12T08:50:01.613Z,10.25
2023-04-12T08:52:28.595Z,9.55
2023-04-12T08:54:56.334Z,10.45
2023-04-12T08:57:23.315Z,9.25
2023-04-12T08:59:51.216Z,10.45
2023-04-12T09:02:18.414Z,9.52
2023-04-12T09:04:50.010Z,8.98
2023-04-12T09:07:17.492Z,8.77
2023-04-12T09:09:45.597Z,8.77
2023-04-12T09:12:13.954Z,8.68
2023-04-12T09:14:44.744Z,8.52
2023-04-12T09:17:26.163Z,9.35
2023-04-12T09:22:40.058Z,8.45
2023-04-12T09:27:51.614Z,8.23
2023-04-12T09:30:20.507Z,9.27
2023-04-12T09:32:50.791Z,9.60
2023-04-12T09:35:18.175Z,9.00
2023-04-12T09:37:45.395Z,8.70
2023-04-12T09:40:12.674Z,8.40
2023-04-12T09:42:53.711Z,8.35
2023-04-12T09:45:25.280Z,8.40
2023-04-12T09:50:30.464Z,9.43
2023-04-12T09:55:27.058Z,8.68
2023-04-12T19:21:03.564Z,14.90
2023-04-12T19:23:31.584Z,15.07
2023-04-12T19:26:00.155Z,14.68
2023-04-12T19:28:28.559Z,15.68
2023-04-12T19:30:58.356Z,15.45
2023-04-12T19:33:26.206Z,15.10
2023-04-12T19:35:56.346Z,15.95
2023-04-12T19:38:23.968Z,16.23
2023-04-12T19:40:51.929Z,17.35
2023-04-12T19:43:18.834Z,16.95
2023-04-12T19:45:46.157Z,17.95
2023-04-12T19:48:13.443Z,17.73
2023-04-12T19:50:41.675Z,18.13
2023-04-12T19:53:11.056Z,17.25
2023-04-12T19:55:40.198Z,17.35
2023-04-12T19:58:08.075Z,18.75
2023-04-12T20:00:39.159Z,17.95
2023-04-12T20:03:06.451Z,18.50
2023-04-12T20:05:33.557Z,17.33
2023-04-12T20:08:01.312Z,18.30
2023-04-12T20:10:28.474Z,17.30
2023-04-12T20:12:55.665Z,17.77
2023-04-12T20:15:23.153Z,18.38
2023-04-12T20:17:52.132Z,17.85
2023-04-12T20:20:20.414Z,17.75
2023-04-12T20:22:48.011Z,19.02
2023-04-12T20:25:15.263Z,17.00
2023-04-12T20:27:43.971Z,18.73
2023-04-12T20:30:11.410Z,17.83
2023-04-12T20:32:38.905Z,18.08
2023-04-12T20:35:07.308Z,18.23
2023-04-12T20:37:34.808Z,18.95
2023-04-12T20:40:06.247Z,18.58
2023-04-12T20:42:33.624Z,18.17
2023-04-12T20:45:01.523Z,18.95
2023-04-12T20:47:28.870Z,16.95
2023-04-12T20:49:56.831Z,16.83
2023-04-12T20:52:25.452Z,16.65
2023-04-12T20:54:53.846Z,17.27
2023-04-12T20:57:21.653Z,17.65
2023-04-12T20:59:48.722Z,18.35
2023-04-12T21:02:20.541Z,17.98
2023-04-12T21:04:47.948Z,17.92
2023-04-12T21:07:15.966Z,18.10
2023-04-12T21:09:42.970Z,18.67
2023-04-12T21:12:11.201Z,18.00
2023-04-12T21:14:38.452Z,17.80
2023-04-12T21:17:07.953Z,18.95
2023-04-12T21:19:42.062Z,18.55
2023-04-12T21:22:09.119Z,18.73
2023-04-12T21:24:38.573Z,18.58
2023-04-12T21:27:08.520Z,19.40
2023-04-12T21:29:41.059Z,17.73
2023-04-12T21:32:09.092Z,18.43
2023-04-12T21:34:37.369Z,19.08
2023-04-12T21:37:04.445Z,19.02
2023-04-12T21:39:32.338Z,19.77
2023-04-12T21:41:59.287Z,19.33
2023-04-12T21:44:26.718Z,19.75
2023-04-12T21:46:53.635Z,19.50
2023-04-12T21:49:20.574Z,20.33
2023-04-12T21:51:49.260Z,18.88
2023-04-12T21:54:16.744Z,19.52
2023-04-12T21:56:43.826Z,19.30
2023-04-12T21:59:10.876Z,20.08
2023-04-12T22:01:38.121Z,18.50
2023-04-12T22:04:05.997Z,20.35
2023-04-12T22:06:33.075Z,20.30
2023-04-12T22:09:02.033Z,21.33
2023-04-12T22:11:29.954Z,20.73
2023-04-12T22:13:57.842Z,19.08
2023-04-12T22:16:24.969Z,19.10
2023-04-12T22:18:52.809Z,19.25
2023-04-12T22:21:19.852Z,19.40
2023-04-12T22:23:46.832Z,20.58
2023-04-12T22:26:13.982Z,21.00
2023-04-12T22:28:42.625Z,21.42
2023-04-12T22:31:14.551Z,19.48
2023-04-12T22:33:42.441Z,19.13
2023-04-12T22:36:09.807Z,19.55
2023-04-12T22:38:37.825Z,18.10
2023-04-12T22:41:05.059Z,18.58
2023-04-12T22:43:42.010Z,18.70
2023-04-12T22:46:16.321Z,18.55
2023-04-12T22:48:44.561Z,21.52
2023-04-12T22:51:11.514Z,19.02
2023-04-12T22:53:38.782Z,21.85
2023-04-12T22:56:06.182Z,21.08
2023-04-12T22:58:33.131Z,21.30
2023-04-12T23:01:00.168Z,21.95
2023-04-12T23:03:28.419Z,20.10
2023-04-12T23:05:55.387Z,21.33
2023-04-12T23:08:23.073Z,20.75
2023-04-12T23:10:50.025Z,19.48
2023-04-12T23:13:16.957Z,22.48
2023-04-12T23:15:44.094Z,21.00
2023-04-12T23:18:11.335Z,21.38
2023-04-12T23:20:38.819Z,21.95
2023-04-12T23:23:05.772Z,21.65
2023-04-12T23:25:41.308Z,21.98
2023-04-12T23:28:13.976Z,21.23
2023-04-12T23:30:49.110Z,20.95
2023-04-12T23:33:21.121Z,21.20
2023-04-12T23:35:49.648Z,20.42
2023-04-12T23:38:24.484Z,19.08
2023-04-12T23:40:54.887Z,20.67
2023-04-12T23:43:22.961Z,20.27
2023-04-12T23:45:50.133Z,20.63
2023-04-12T23:48:17.200Z,20.48
2023-04-12T23:50:48.488Z,20.50
2023-04-12T23:53:16.191Z,21.50
2023-04-12T23:55:43.960Z,21.85
2023-04-12T23:58:11.340Z,21.85
